Time;durP1;ratioP1;P1;durP2;ratioP2;P2;SDS_P1;SDS_P2;PMS_P1;PMS_P2;Temp;Humidity;BMP_temperature;BMP_pressure;BME280_temperature;BME280_humidity;BME280_pressure;Samples;Min_cycle;Max_cycle;Signal;HPM_P1;HPM_P2
2023/05/17 00:02:39;;;;;;;;;;;20.00;51.70;;;;;;10368556;28;781;-71
2023/05/17 00:07:48;;;;;;;;;;;20.00;51.50;;;;;;10367157;28;771;-71
2023/05/17 00:12:43;;;;;;;;;;;20.10;51.60;;;;;;10368083;28;1898;-71
2023/05/17 00:17:41;;;;;;;;;;;20.10;51.60;;;;;;10367288;28;1226;-71
2023/05/17 00:22:39;;;;;;;;;;;20.10;51.50;;;;;;10367422;28;1331;-71
2023/05/17 00:27:37;;;;;;;;;;;20.00;51.50;;;;;;10366746;28;1352;-71
2023/05/17 00:37:46;;;;;;;;;;;20.00;51.40;;;;;;10619046;22;2101;-71
2023/05/17 00:42:42;;;;;;;;;;;20.00;51.50;;;;;;10365701;28;894;-71
2023/05/17 00:47:37;;;;;;;;;;;20.00;51.50;;;;;;10366607;28;825;-72
2023/05/17 00:52:33;;;;;;;;;;;20.00;51.50;;;;;;10367099;28;1918;-71
2023/05/17 00:57:28;;;;;;;;;;;20.00;51.60;;;;;;10367011;28;872;-71
2023/05/17 01:02:23;;;;;;;;;;;20.00;51.50;;;;;;10366248;28;918;-71
2023/05/17 01:07:19;;;;;;;;;;;20.00;51.60;;;;;;10366223;28;944;-71
2023/05/17 01:12:14;;;;;;;;;;;20.00;51.60;;;;;;10366601;28;1965;-72
2023/05/17 01:17:10;;;;;;;;;;;20.00;51.60;;;;;;10366571;28;829;-72
2023/05/17 01:22:05;;;;;;;;;;;20.00;51.50;;;;;;10366565;28;842;-71
2023/05/17 01:27:01;;;;;;;;;;;20.00;51.50;;;;;;10365821;28;995;-71
2023/05/17 01:31:58;;;;;;;;;;;20.00;51.50;;;;;;10366603;28;1982;-71
2023/05/17 01:36:54;;;;;;;;;;;20.00;51.50;;;;;;10365364;28;1321;-71
2023/05/17 01:41:49;;;;;;;;;;;20.00;51.50;;;;;;10365717;28;813;-71
2023/05/17 01:46:46;;;;;;;;;;;19.90;51.60;;;;;;10365409;28;901;-71
2023/05/17 01:51:42;;;;;;;;;;;19.90;51.50;;;;;;10367637;28;1978;-71
2023/05/17 01:56:37;;;;;;;;;;;19.90;51.40;;;;;;10373521;28;960;-71
2023/05/17 02:01:32;;;;;;;;;;;19.90;51.50;;;;;;10372718;28;934;-71
2023/05/17 02:06:28;;;;;;;;;;;19.90;51.50;;;;;;10372221;28;960;-71
2023/05/17 02:11:23;;;;;;;;;;;19.90;51.60;;;;;;10372848;28;1964;-71
2023/05/17 02:16:19;;;;;;;;;;;19.90;51.60;;;;;;10372736;28;1010;-71
2023/05/17 02:21:15;;;;;;;;;;;19.90;51.50;;;;;;10372717;28;805;-71
2023/05/17 02:26:10;;;;;;;;;;;19.90;51.50;;;;;;10371740;28;891;-72
2023/05/17 02:31:05;;;;;;;;;;;19.90;51.30;;;;;;10370842;28;1902;-71
2023/05/17 02:36:01;;;;;;;;;;;19.90;51.30;;;;;;10371425;28;1280;-72
2023/05/17 02:40:56;;;;;;;;;;;19.90;51.40;;;;;;10371325;28;805;-71
2023/05/17 02:45:51;;;;;;;;;;;19.90;51.50;;;;;;10370940;28;829;-71
2023/05/17 02:50:47;;;;;;;;;;;19.80;51.50;;;;;;10371287;28;1910;-71
2023/05/17 02:55:42;;;;;;;;;;;19.80;51.40;;;;;;10370627;28;983;-71
2023/05/17 03:00:37;;;;;;;;;;;19.80;51.50;;;;;;10370389;28;821;-71
2023/05/17 03:05:33;;;;;;;;;;;19.80;51.40;;;;;;10369183;28;838;-72
2023/05/17 03:10:28;;;;;;;;;;;19.80;51.50;;;;;;10369897;28;1902;-71
2023/05/17 03:15:28;;;;;;;;;;;19.80;51.40;;;;;;10370061;28;815;-71
2023/05/17 03:20:23;;;;;;;;;;;19.80;51.40;;;;;;10370435;28;822;-71
2023/05/17 03:25:19;;;;;;;;;;;19.80;52.00;;;;;;10369434;28;803;-72
2023/05/17 03:30:14;;;;;;;;;;;19.80;51.50;;;;;;10369191;28;1905;-71
2023/05/17 03:35:10;;;;;;;;;;;19.80;51.40;;;;;;10368792;28;1090;-72
2023/05/17 03:40:05;;;;;;;;;;;19.80;51.40;;;;;;10369879;28;868;-71
2023/05/17 03:45:00;;;;;;;;;;;19.80;51.50;;;;;;10368638;28;813;-71
2023/05/17 03:49:56;;;;;;;;;;;19.80;51.50;;;;;;10368422;28;1906;-71
2023/05/17 03:54:51;;;;;;;;;;;19.70;51.60;;;;;;10368899;28;786;-71
2023/05/17 03:59:46;;;;;;;;;;;19.70;51.50;;;;;;10368135;28;904;-71
2023/05/17 04:04:42;;;;;;;;;;;19.80;51.50;;;;;;10367939;28;951;-71
2023/05/17 04:09:37;;;;;;;;;;;19.80;51.50;;;;;;10367690;28;1909;-72
2023/05/17 04:14:32;;;;;;;;;;;19.70;51.50;;;;;;10367971;28;921;-72
2023/05/17 04:19:28;;;;;;;;;;;19.70;51.70;;;;;;10367550;28;845;-71
2023/05/17 04:24:23;;;;;;;;;;;19.70;51.50;;;;;;10367299;28;945;-72
2023/05/17 04:29:19;;;;;;;;;;;19.80;51.50;;;;;;10366456;28;1967;-71
2023/05/17 04:34:15;;;;;;;;;;;19.80;51.60;;;;;;10366764;28;987;-72
2023/05/17 04:39:10;;;;;;;;;;;19.80;51.30;;;;;;10367071;28;770;-71
2023/05/17 04:44:06;;;;;;;;;;;19.80;52.10;;;;;;10367482;28;854;-71
2023/05/17 04:49:02;;;;;;;;;;;19.80;51.40;;;;;;10366527;28;1906;-71
2023/05/17 04:53:59;;;;;;;;;;;19.90;51.30;;;;;;10366447;28;980;-71
2023/05/17 04:58:55;;;;;;;;;;;19.80;51.40;;;;;;10367339;28;880;-71
2023/05/17 05:03:50;;;;;;;;;;;19.90;51.40;;;;;;10366196;28;908;-71
2023/05/17 05:08:45;;;;;;;;;;;19.90;51.40;;;;;;10366963;28;1902;-71
2023/05/17 05:13:41;;;;;;;;;;;19.90;51.40;;;;;;10366150;28;955;-72
2023/05/17 05:18:36;;;;;;;;;;;19.90;51.40;;;;;;10366068;28;766;-74
2023/05/17 05:23:32;;;;;;;;;;;19.90;51.50;;;;;;10367163;28;858;-72
2023/05/17 05:28:27;;;;;;;;;;;19.90;51.40;;;;;;10371285;28;837;-72
2023/05/17 05:33:22;;;;;;;;;;;19.90;51.50;;;;;;10370316;28;1910;-72
2023/05/17 05:38:18;;;;;;;;;;;19.90;51.60;;;;;;10331570;28;1124;-72
2023/05/17 05:43:13;;;;;;;;;;;19.80;51.40;;;;;;10332153;28;783;-72
2023/05/17 05:48:09;;;;;;;;;;;19.90;51.50;;;;;;10332071;28;897;-72
2023/05/17 05:53:05;;;;;;;;;;;20.00;51.50;;;;;;10331728;28;1973;-72
2023/05/17 05:58:00;;;;;;;;;;;19.90;51.50;;;;;;10331176;28;857;-72
2023/05/17 06:02:56;;;;;;;;;;;19.80;51.50;;;;;;10331358;28;898;-72
2023/05/17 06:13:05;;;;;;;;;;;19.80;51.60;;;;;;10330589;28;1906;-72
2023/05/17 06:18:01;;;;;;;;;;;19.80;51.70;;;;;;10331020;28;871;-72
2023/05/17 06:22:56;;;;;;;;;;;19.70;51.70;;;;;;10331265;28;923;-71
2023/05/17 06:27:51;;;;;;;;;;;19.80;51.70;;;;;;10331124;28;928;-71
2023/05/17 06:32:47;;;;;;;;;;;19.70;51.80;;;;;;10330867;28;1905;-72
2023/05/17 06:37:42;;;;;;;;;;;19.70;51.80;;;;;;10330713;28;1265;-72
2023/05/17 06:42:38;;;;;;;;;;;19.80;51.80;;;;;;10329993;28;780;-72
2023/05/17 06:47:33;;;;;;;;;;;19.80;51.70;;;;;;10329669;28;794;-72
2023/05/17 06:52:28;;;;;;;;;;;19.80;51.50;;;;;;10328984;28;1984;-72
2023/05/17 06:57:24;;;;;;;;;;;19.80;51.70;;;;;;10329431;28;865;-72
2023/05/17 07:02:19;;;;;;;;;;;19.80;51.50;;;;;;10329819;28;872;-69
2023/05/17 07:07:14;;;;;;;;;;;19.90;51.90;;;;;;10329070;28;852;-69
2023/05/17 07:12:10;;;;;;;;;;;19.90;52.00;;;;;;10329114;28;1898;-69
2023/05/17 07:17:05;;;;;;;;;;;19.90;52.10;;;;;;10328624;28;935;-69
2023/05/17 07:22:01;;;;;;;;;;;19.90;52.00;;;;;;10327836;28;858;-68
2023/05/17 07:26:56;;;;;;;;;;;19.90;52.00;;;;;;10328182;28;789;-68
2023/05/17 07:31:51;;;;;;;;;;;19.90;52.10;;;;;;10328522;28;1933;-68
2023/05/17 07:36:47;;;;;;;;;;;19.90;52.20;;;;;;10327794;28;1326;-68
2023/05/17 07:41:42;;;;;;;;;;;19.90;52.30;;;;;;10328291;28;892;-68
2023/05/17 07:46:37;;;;;;;;;;;19.90;52.30;;;;;;10326762;28;1066;-68
2023/05/17 07:51:33;;;;;;;;;;;19.90;52.30;;;;;;10326505;28;1906;-68
2023/05/17 07:56:28;;;;;;;;;;;19.80;52.10;;;;;;10328211;28;970;-68
2023/05/17 08:01:23;;;;;;;;;;;19.90;52.30;;;;;;10327174;28;790;-69
2023/05/17 08:06:19;;;;;;;;;;;19.90;52.00;;;;;;10326195;28;1020;-69
2023/05/17 08:11:14;;;;;;;;;;;19.80;52.20;;;;;;10326956;28;1922;-69
2023/05/17 08:16:11;;;;;;;;;;;19.80;52.10;;;;;;10327173;28;836;-68
2023/05/17 08:21:06;;;;;;;;;;;19.80;52.20;;;;;;10326185;28;784;-69
2023/05/17 08:26:02;;;;;;;;;;;19.80;52.30;;;;;;10325476;28;862;-69
2023/05/17 08:30:57;;;;;;;;;;;19.80;52.30;;;;;;10325297;28;1953;-69
2023/05/17 08:35:54;;;;;;;;;;;19.80;52.50;;;;;;10326823;28;1301;-68
2023/05/17 08:40:49;;;;;;;;;;;19.70;52.40;;;;;;10325716;28;808;-68
2023/05/17 08:45:45;;;;;;;;;;;19.80;52.30;;;;;;10326229;28;882;-69
2023/05/17 08:50:41;;;;;;;;;;;19.70;52.00;;;;;;10322750;28;1910;-72
2023/05/17 08:55:36;;;;;;;;;;;19.80;52.00;;;;;;10324714;28;906;-72
2023/05/17 09:00:32;;;;;;;;;;;19.70;52.10;;;;;;10325420;28;763;-72
2023/05/17 09:05:27;;;;;;;;;;;19.70;52.10;;;;;;10334326;28;820;-72
2023/05/17 09:10:22;;;;;;;;;;;19.70;52.00;;;;;;10333621;28;1902;-72
2023/05/17 09:15:18;;;;;;;;;;;19.70;51.90;;;;;;10333209;28;969;-72
2023/05/17 09:20:13;;;;;;;;;;;19.70;52.10;;;;;;10333279;28;880;-72
2023/05/17 09:25:09;;;;;;;;;;;19.80;51.90;;;;;;10332956;28;849;-72
2023/05/17 09:30:04;;;;;;;;;;;19.80;52.00;;;;;;10332156;28;1902;-72
2023/05/17 09:35:01;;;;;;;;;;;19.70;52.00;;;;;;10332502;28;1120;-72
2023/05/17 09:39:56;;;;;;;;;;;19.70;51.90;;;;;;10331780;28;886;-72
2023/05/17 09:44:52;;;;;;;;;;;19.80;51.70;;;;;;10332137;28;806;-72
2023/05/17 09:49:47;;;;;;;;;;;19.90;51.80;;;;;;10331433;28;1906;-72
2023/05/17 09:54:43;;;;;;;;;;;19.90;51.90;;;;;;10332311;28;873;-72
2023/05/17 09:59:39;;;;;;;;;;;19.80;51.90;;;;;;10331550;28;870;-72
2023/05/17 10:04:36;;;;;;;;;;;19.80;52.00;;;;;;10332047;28;837;-72
2023/05/17 10:09:34;;;;;;;;;;;19.80;51.90;;;;;;10330520;28;1984;-72
2023/05/17 10:14:32;;;;;;;;;;;19.90;52.00;;;;;;10330638;28;798;-72
2023/05/17 10:19:28;;;;;;;;;;;19.80;51.90;;;;;;10330884;28;904;-73
2023/05/17 10:24:23;;;;;;;;;;;19.80;52.00;;;;;;10330722;28;876;-73
2023/05/17 10:29:21;;;;;;;;;;;19.80;52.10;;;;;;10330460;28;1952;-74
2023/05/17 10:34:17;;;;;;;;;;;19.70;52.00;;;;;;10330179;28;1025;-72
2023/05/17 10:39:12;;;;;;;;;;;19.70;52.00;;;;;;10330240;28;821;-72
2023/05/17 10:44:07;;;;;;;;;;;19.80;52.00;;;;;;10330127;28;826;-72
2023/05/17 10:49:03;;;;;;;;;;;19.70;51.90;;;;;;10329726;28;1963;-72
2023/05/17 10:53:58;;;;;;;;;;;19.80;51.90;;;;;;10330425;28;860;-72
2023/05/17 10:58:54;;;;;;;;;;;19.80;51.90;;;;;;10329474;28;923;-72
2023/05/17 11:03:49;;;;;;;;;;;19.80;51.80;;;;;;10329246;28;976;-72
2023/05/17 11:08:48;;;;;;;;;;;19.80;51.90;;;;;;10329044;28;830;-72
2023/05/17 11:13:45;;;;;;;;;;;19.80;51.80;;;;;;10328713;28;1902;-72
2023/05/17 11:18:40;;;;;;;;;;;19.70;51.80;;;;;;10329318;28;859;-71
2023/05/17 11:23:35;;;;;;;;;;;19.70;51.80;;;;;;10327525;28;980;-69
2023/05/17 11:28:31;;;;;;;;;;;19.80;52.10;;;;;;10328918;28;845;-71
2023/05/17 11:33:26;;;;;;;;;;;19.90;51.50;;;;;;10327851;28;1898;-71
2023/05/17 11:38:22;;;;;;;;;;;19.90;51.60;;;;;;10329139;28;1285;-71
2023/05/17 11:43:18;;;;;;;;;;;19.80;51.60;;;;;;10327552;28;882;-71
2023/05/17 11:48:13;;;;;;;;;;;19.80;51.70;;;;;;10327410;28;795;-71
2023/05/17 11:53:09;;;;;;;;;;;19.80;51.60;;;;;;10327093;28;1887;-72
2023/05/17 11:58:05;;;;;;;;;;;19.90;51.50;;;;;;10327602;28;857;-71
2023/05/17 12:03:00;;;;;;;;;;;19.90;51.60;;;;;;10327360;28;1064;-71
2023/05/17 12:07:56;;;;;;;;;;;19.90;51.70;;;;;;10326078;28;1002;-68
2023/05/17 12:12:51;;;;;;;;;;;19.80;51.80;;;;;;10327023;28;1898;-71
2023/05/17 12:17:46;;;;;;;;;;;19.90;51.80;;;;;;10326296;28;805;-71
2023/05/17 12:22:42;;;;;;;;;;;19.90;51.90;;;;;;10326791;28;818;-71
2023/05/17 12:27:38;;;;;;;;;;;19.90;51.70;;;;;;10325254;28;1084;-71
2023/05/17 12:32:33;;;;;;;;;;;19.90;51.70;;;;;;10325275;28;1980;-71
2023/05/17 12:37:29;;;;;;;;;;;19.90;51.80;;;;;;10325109;28;1231;-71
2023/05/17 12:42:24;;;;;;;;;;;19.90;51.70;;;;;;10325680;28;921;-71
2023/05/17 12:47:20;;;;;;;;;;;19.90;51.70;;;;;;10325600;28;904;-72
2023/05/17 12:52:15;;;;;;;;;;;19.90;51.80;;;;;;10325265;28;1906;-72
2023/05/17 12:57:12;;;;;;;;;;;20.00;51.80;;;;;;10325188;28;756;-72
2023/05/17 13:02:07;;;;;;;;;;;20.00;51.80;;;;;;10325609;28;954;-71
2023/05/17 13:07:03;;;;;;;;;;;20.00;51.70;;;;;;10325216;28;876;-71
2023/05/17 13:11:58;;;;;;;;;;;20.00;51.80;;;;;;10324851;28;1961;-71
2023/05/17 13:16:53;;;;;;;;;;;20.00;51.80;;;;;;10324908;28;838;-68
2023/05/17 13:21:49;;;;;;;;;;;20.00;51.90;;;;;;10325425;28;805;-69
2023/05/17 13:26:44;;;;;;;;;;;20.00;51.80;;;;;;10324490;28;862;-69
2023/05/17 13:31:41;;;;;;;;;;;20.10;52.10;;;;;;10324403;28;1906;-69
2023/05/17 13:36:37;;;;;;;;;;;20.00;52.10;;;;;;10325108;28;1291;-68
2023/05/17 13:41:32;;;;;;;;;;;20.10;52.20;;;;;;10324853;28;962;-69
2023/05/17 13:46:27;;;;;;;;;;;20.20;52.20;;;;;;10325115;28;940;-69
2023/05/17 13:51:24;;;;;;;;;;;20.20;52.10;;;;;;10332347;28;1909;-69
2023/05/17 13:56:21;;;;;;;;;;;20.20;52.10;;;;;;10332104;28;956;-69
2023/05/17 14:01:17;;;;;;;;;;;20.20;52.10;;;;;;10331265;28;934;-71
2023/05/17 14:06:12;;;;;;;;;;;20.20;52.20;;;;;;10331631;28;886;-71
2023/05/17 14:11:08;;;;;;;;;;;20.10;52.20;;;;;;10330831;28;1972;-71
2023/05/17 14:16:03;;;;;;;;;;;20.20;52.20;;;;;;10330788;28;781;-71
2023/05/17 14:20:59;;;;;;;;;;;20.20;52.10;;;;;;10330620;28;778;-71
2023/05/17 14:25:56;;;;;;;;;;;20.30;52.10;;;;;;10331120;28;855;-71
2023/05/17 14:30:52;;;;;;;;;;;20.30;51.90;;;;;;10330433;28;1902;-71
2023/05/17 14:35:47;;;;;;;;;;;20.40;51.80;;;;;;10330153;28;1334;-72
2023/05/17 14:40:42;;;;;;;;;;;20.40;51.80;;;;;;10330827;28;778;-71
2023/05/17 14:45:38;;;;;;;;;;;20.50;51.80;;;;;;10330657;28;794;-71
2023/05/17 14:50:33;;;;;;;;;;;20.50;51.80;;;;;;10330522;28;1918;-71
2023/05/17 14:55:29;;;;;;;;;;;20.40;52.00;;;;;;10329642;28;916;-71
2023/05/17 15:00:25;;;;;;;;;;;20.40;52.00;;;;;;10328347;28;963;-69
2023/05/17 15:05:21;;;;;;;;;;;20.40;51.90;;;;;;10329784;28;793;-69
2023/05/17 15:10:16;;;;;;;;;;;20.50;51.90;;;;;;10330021;28;1910;-69
2023/05/17 15:15:12;;;;;;;;;;;20.60;51.80;;;;;;10328740;28;795;-69
2023/05/17 15:20:07;;;;;;;;;;;20.70;51.80;;;;;;10329471;28;766;-69
2023/05/17 15:25:02;;;;;;;;;;;20.70;51.70;;;;;;10329013;28;900;-69
2023/05/17 15:29:58;;;;;;;;;;;20.60;51.70;;;;;;10328191;28;1971;-69
2023/05/17 15:34:53;;;;;;;;;;;20.60;51.90;;;;;;10328119;28;1374;-68
2023/05/17 15:39:48;;;;;;;;;;;20.60;51.90;;;;;;10327231;28;904;-68
2023/05/17 15:44:44;;;;;;;;;;;20.60;51.90;;;;;;10328235;28;821;-69
2023/05/17 15:49:40;;;;;;;;;;;20.60;52.00;;;;;;10327349;28;1910;-69
2023/05/17 15:54:35;;;;;;;;;;;20.60;51.90;;;;;;10327295;28;934;-69
2023/05/17 15:59:30;;;;;;;;;;;20.50;52.00;;;;;;10327609;28;885;-69
2023/05/17 16:04:26;;;;;;;;;;;20.50;52.10;;;;;;10327023;28;857;-69
2023/05/17 16:09:21;;;;;;;;;;;20.40;52.20;;;;;;10325612;28;1902;-69
2023/05/17 16:14:17;;;;;;;;;;;20.40;52.20;;;;;;10327338;28;915;-68
2023/05/17 16:19:12;;;;;;;;;;;20.40;52.20;;;;;;10326475;28;786;-68
2023/05/17 16:24:08;;;;;;;;;;;20.40;52.10;;;;;;10326215;28;882;-67
2023/05/17 16:29:04;;;;;;;;;;;20.30;51.90;;;;;;10326056;28;929;-68
2023/05/17 16:33:59;;;;;;;;;;;20.30;52.00;;;;;;10325141;28;1902;-69
2023/05/17 16:38:54;;;;;;;;;;;20.30;52.10;;;;;;10325869;28;887;-69
2023/05/17 16:43:50;;;;;;;;;;;20.30;52.10;;;;;;10326467;28;891;-69
2023/05/17 16:48:45;;;;;;;;;;;20.40;52.20;;;;;;10324895;28;925;-69
2023/05/17 16:53:41;;;;;;;;;;;20.30;52.10;;;;;;10325442;28;1986;-69
2023/05/17 16:58:36;;;;;;;;;;;20.30;52.10;;;;;;10325487;28;860;-69
2023/05/17 17:03:31;;;;;;;;;;;20.30;52.10;;;;;;10325251;28;884;-69
2023/05/17 17:08:27;;;;;;;;;;;20.40;52.20;;;;;;10325223;28;763;-69
2023/05/17 17:13:22;;;;;;;;;;;20.30;52.10;;;;;;10325150;28;1905;-69
2023/05/17 17:18:18;;;;;;;;;;;20.40;52.10;;;;;;10325005;28;846;-67
2023/05/17 17:23:13;;;;;;;;;;;20.30;52.10;;;;;;10328673;28;1004;-69
2023/05/17 17:28:09;;;;;;;;;;;20.30;52.20;;;;;;10332938;28;855;-68
2023/05/17 17:33:04;;;;;;;;;;;20.30;52.30;;;;;;10332256;28;1964;-68
2023/05/17 17:38:01;;;;;;;;;;;20.30;52.20;;;;;;10332770;28;1368;-68
2023/05/17 17:42:57;;;;;;;;;;;20.30;52.20;;;;;;10332393;28;865;-68
2023/05/17 17:47:52;;;;;;;;;;;20.30;52.10;;;;;;10332200;28;798;-69
2023/05/17 17:52:47;;;;;;;;;;;20.30;52.20;;;;;;10332839;28;1963;-68
2023/05/17 17:57:43;;;;;;;;;;;20.30;52.10;;;;;;10332369;28;848;-68
2023/05/17 18:02:38;;;;;;;;;;;20.30;52.20;;;;;;10332202;28;873;-69
2023/05/17 18:07:34;;;;;;;;;;;20.30;52.20;;;;;;10331443;28;1023;-68
2023/05/17 18:12:29;;;;;;;;;;;20.30;52.10;;;;;;10331208;28;1906;-68
2023/05/17 18:17:24;;;;;;;;;;;20.40;52.10;;;;;;10331661;28;818;-68
2023/05/17 18:22:20;;;;;;;;;;;20.30;52.10;;;;;;10331591;28;848;-68
2023/05/17 18:27:15;;;;;;;;;;;20.30;52.00;;;;;;10330717;28;886;-68
2023/05/17 18:32:11;;;;;;;;;;;20.30;51.90;;;;;;10330210;28;1906;-68
2023/05/17 18:37:06;;;;;;;;;;;20.30;51.80;;;;;;10331118;28;1396;-71
2023/05/17 18:42:02;;;;;;;;;;;20.30;51.70;;;;;;10330208;28;877;-71
2023/05/17 18:46:58;;;;;;;;;;;20.40;51.60;;;;;;10330027;28;844;-71
2023/05/17 18:51:53;;;;;;;;;;;20.30;51.50;;;;;;10330643;28;1902;-72
2023/05/17 18:56:48;;;;;;;;;;;20.30;51.50;;;;;;10330224;28;833;-71
2023/05/17 19:01:44;;;;;;;;;;;20.40;51.50;;;;;;10329477;28;837;-71
2023/05/17 19:06:41;;;;;;;;;;;20.40;51.50;;;;;;10329250;28;822;-71
2023/05/17 19:11:36;;;;;;;;;;;20.40;51.40;;;;;;10329694;28;1894;-71
2023/05/17 19:16:31;;;;;;;;;;;20.40;51.40;;;;;;10328814;28;914;-71
2023/05/17 19:21:27;;;;;;;;;;;20.40;51.40;;;;;;10329221;28;817;-71
2023/05/17 19:26:22;;;;;;;;;;;20.40;51.40;;;;;;10328468;28;897;-71
2023/05/17 19:31:17;;;;;;;;;;;20.40;51.30;;;;;;10328528;28;1964;-71
2023/05/17 19:36:13;;;;;;;;;;;20.40;51.20;;;;;;10327737;28;1438;-72
2023/05/17 19:41:08;;;;;;;;;;;20.30;51.10;;;;;;10328393;28;881;-72
2023/05/17 19:46:08;;;;;;;;;;;20.30;51.10;;;;;;10326864;28;771;-71
2023/05/17 19:51:03;;;;;;;;;;;20.30;51.10;;;;;;10327876;28;1910;-71
2023/05/17 19:55:59;;;;;;;;;;;20.30;51.20;;;;;;10327965;28;1642;-71
2023/05/17 20:00:55;;;;;;;;;;;20.20;51.20;;;;;;10327029;28;972;-71
2023/05/17 20:05:50;;;;;;;;;;;20.20;51.10;;;;;;10327066;28;956;-71
2023/05/17 20:10:45;;;;;;;;;;;20.20;50.90;;;;;;10327207;28;1893;-71
2023/05/17 20:15:41;;;;;;;;;;;20.20;50.90;;;;;;10327157;28;928;-71
2023/05/17 20:20:36;;;;;;;;;;;20.10;50.90;;;;;;10326464;28;834;-71
2023/05/17 20:25:32;;;;;;;;;;;20.20;50.90;;;;;;10326878;28;940;-71
2023/05/17 20:30:27;;;;;;;;;;;20.10;50.80;;;;;;10326023;28;1900;-71
2023/05/17 20:35:22;;;;;;;;;;;20.10;50.90;;;;;;10326282;28;1429;-71
2023/05/17 20:40:18;;;;;;;;;;;20.10;51.30;;;;;;10325903;28;1004;-71
2023/05/17 20:45:16;;;;;;;;;;;20.10;50.70;;;;;;10325766;28;817;-71
2023/05/17 20:50:12;;;;;;;;;;;20.10;50.70;;;;;;10326163;28;1906;-71
2023/05/17 20:55:08;;;;;;;;;;;20.10;50.50;;;;;;10325498;28;810;-71
2023/05/17 21:00:04;;;;;;;;;;;20.10;50.50;;;;;;10325420;28;774;-71
2023/05/17 21:05:02;;;;;;;;;;;20.10;50.60;;;;;;10325279;28;1036;-71
2023/05/17 21:09:57;;;;;;;;;;;20.10;50.50;;;;;;10325257;28;1901;-71
2023/05/17 21:14:52;;;;;;;;;;;20.10;50.60;;;;;;10325170;28;786;-71
2023/05/17 21:19:48;;;;;;;;;;;20.10;50.60;;;;;;10325000;28;873;-71
2023/05/17 21:24:43;;;;;;;;;;;20.10;50.70;;;;;;10325547;28;817;-71
2023/05/17 21:29:39;;;;;;;;;;;20.10;50.60;;;;;;10324763;28;1933;-71
2023/05/17 21:34:35;;;;;;;;;;;20.10;50.70;;;;;;10324721;28;1135;-71
2023/05/17 21:39:30;;;;;;;;;;;20.10;50.70;;;;;;10324840;28;774;-71
2023/05/17 21:44:26;;;;;;;;;;;20.10;50.80;;;;;;10324515;28;864;-71
2023/05/17 21:49:21;;;;;;;;;;;20.10;50.80;;;;;;10325604;28;1898;-71
2023/05/17 21:54:16;;;;;;;;;;;20.10;50.80;;;;;;10324406;28;877;-71
2023/05/17 21:59:12;;;;;;;;;;;20.10;50.70;;;;;;10324937;28;817;-71
2023/05/17 22:04:08;;;;;;;;;;;20.10;50.90;;;;;;10324171;28;825;-71
2023/05/17 22:09:05;;;;;;;;;;;20.10;50.80;;;;;;10327668;28;833;-71
2023/05/17 22:14:00;;;;;;;;;;;20.10;50.80;;;;;;10331268;28;1894;-71
2023/05/17 22:18:58;;;;;;;;;;;20.10;50.80;;;;;;10332326;28;865;-71
2023/05/17 22:23:53;;;;;;;;;;;20.10;50.80;;;;;;10331127;28;924;-71
2023/05/17 22:28:49;;;;;;;;;;;20.10;50.80;;;;;;10331343;28;866;-71
2023/05/17 22:33:44;;;;;;;;;;;20.10;50.80;;;;;;10330532;28;1973;-71
2023/05/17 22:38:41;;;;;;;;;;;20.10;50.90;;;;;;10330393;28;1236;-71
2023/05/17 22:43:36;;;;;;;;;;;20.00;50.80;;;;;;10330814;28;856;-71
2023/05/17 22:48:32;;;;;;;;;;;20.00;50.80;;;;;;10329967;28;797;-71
2023/05/17 22:53:27;;;;;;;;;;;20.10;50.90;;;;;;10330351;28;1910;-71
2023/05/17 22:58:22;;;;;;;;;;;20.10;50.80;;;;;;10330278;28;825;-71
2023/05/17 23:03:18;;;;;;;;;;;20.00;50.80;;;;;;10329982;28;1051;-71
2023/05/17 23:08:16;;;;;;;;;;;20.00;50.80;;;;;;10330230;28;885;-71
2023/05/17 23:13:12;;;;;;;;;;;20.00;50.80;;;;;;10328382;28;1964;-71
2023/05/17 23:18:07;;;;;;;;;;;20.10;50.70;;;;;;10328841;28;809;-72
2023/05/17 23:23:03;;;;;;;;;;;20.10;50.70;;;;;;10328404;28;941;-71
2023/05/17 23:27:58;;;;;;;;;;;20.10;50.80;;;;;;10329036;28;822;-71
2023/05/17 23:32:54;;;;;;;;;;;20.00;50.80;;;;;;10328177;28;1910;-71
2023/05/17 23:37:49;;;;;;;;;;;20.00;50.80;;;;;;10328673;28;1168;-71
2023/05/17 23:42:45;;;;;;;;;;;20.00;50.80;;;;;;10327825;28;873;-71
2023/05/17 23:47:40;;;;;;;;;;;20.00;50.70;;;;;;10328711;28;856;-71
2023/05/17 23:52:37;;;;;;;;;;;20.00;50.80;;;;;;10327396;28;1918;-71
2023/05/17 23:57:34;;;;;;;;;;;20.10;50.80;;;;;;10326656;28;852;-71
